Time;durP1;ratioP1;P1;durP2;ratioP2;P2;SDS_P1;SDS_P2;PMS_P1;PMS_P2;Temp;Humidity;BMP_temperature;BMP_pressure;BME280_temperature;BME280_humidity;BME280_pressure;Samples;Min_cycle;Max_cycle;Signal;HPM_P1;HPM_P2
2023/09/05 10:35:52;;;;;;;3.90;2.67;;;;;;;;;;10555884;28;20115;-85
2023/09/05 10:41:25;;;;;;;3.10;1.80;;;;;;;;;;10540481;28;20116;-84
2023/09/05 11:49:06;;;;;;;2.47;1.90;;;;;;;;;;10556361;28;20698;-83
2023/09/05 11:54:07;;;;;;;;;;;;;;;;;;10536754;28;20036;-85
2023/09/05 11:59:08;;;;;;;2.60;1.52;;;;;;;;;;10540665;28;19915;-84
2023/09/05 12:04:10;;;;;;;4.05;2.50;;;;;;;;;;10541097;28;20060;-83
2023/09/05 12:09:13;;;;;;;3.17;1.48;;;;;;;;;;10544313;28;20016;-85
2023/09/05 12:14:16;;;;;;;1.80;1.10;;;;;;;;;;10544543;28;20101;-83
2023/09/05 12:19:17;;;;;;;2.13;1.45;;;;;;;;;;10569668;28;20013;-82
2023/09/05 12:24:23;;;;;;;1.60;1.30;;;;;;;;;;10544204;28;20032;-83
2023/09/05 12:29:37;;;;;;;5.25;1.40;;;;;;;;;;10534134;28;20119;-83
2023/09/05 12:34:38;;;;;;;1.65;1.55;;;;;;;;;;10535798;28;20035;-83
2023/09/05 12:39:39;;;;;;;2.13;1.23;;;;;;;;;;10545647;28;20047;-83
2023/09/05 12:44:40;;;;;;;2.30;1.10;;;;;;;;;;10536733;28;20024;-83
2023/09/05 12:49:42;;;;;;;1.45;1.27;;;;;;;;;;10536824;28;20482;-83
2023/09/05 12:54:44;;;;;;;2.85;1.80;;;;;;;;;;10536113;28;20394;-83
2023/09/05 12:59:45;;;;;;;3.78;1.50;;;;;;;;;;10535421;28;20405;-84
2023/09/05 13:04:46;;;;;;;3.58;2.00;;;;;;;;;;10544295;28;20032;-83
2023/09/05 13:09:47;;;;;;;1.70;1.42;;;;;;;;;;10547355;28;20524;-83
2023/09/05 13:14:48;;;;;;;1.65;1.10;;;;;;;;;;10545950;28;20481;-86
2023/09/05 13:19:50;;;;;;;2.85;1.27;;;;;;;;;;10558434;28;20054;-85
2023/09/05 13:24:51;;;;;;;1.58;1.10;;;;;;;;;;10552796;28;20024;-85
2023/09/05 13:29:52;;;;;;;2.35;1.27;;;;;;;;;;10540805;28;20028;-85
2023/09/05 13:34:53;;;;;;;2.92;2.30;;;;;;;;;;10532426;28;20031;-85
2023/09/05 13:39:54;;;;;;;1.73;1.35;;;;;;;;;;10531839;28;20024;-85
2023/09/05 13:44:55;;;;;;;2.67;1.10;;;;;;;;;;10556076;28;20028;-85
2023/09/05 13:49:56;;;;;;;2.67;1.30;;;;;;;;;;10537875;28;20050;-85
2023/09/05 13:55:00;;;;;;;1.80;1.08;;;;;;;;;;10545896;28;20044;-85
2023/09/05 14:00:01;;;;;;;1.73;1.30;;;;;;;;;;10561725;28;20024;-85
2023/09/05 14:05:02;;;;;;;3.63;1.50;;;;;;;;;;10566376;28;20038;-85
2023/09/05 14:10:04;;;;;;;1.85;1.40;;;;;;;;;;10552382;28;20039;-84
2023/09/05 14:15:05;;;;;;;3.65;2.05;;;;;;;;;;10593162;28;20070;-85
2023/09/05 14:20:07;;;;;;;3.05;1.15;;;;;;;;;;10548316;28;20062;-86
2023/09/05 14:25:11;;;;;;;1.60;1.20;;;;;;;;;;10542632;28;20024;-86
2023/09/05 14:30:12;;;;;;;2.55;1.33;;;;;;;;;;10539070;28;20074;-86
2023/09/05 14:35:13;;;;;;;2.10;1.20;;;;;;;;;;10536043;28;20162;-86
2023/09/05 14:40:14;;;;;;;1.17;1.00;;;;;;;;;;10540045;28;20051;-84
2023/09/05 14:45:15;;;;;;;4.07;1.33;;;;;;;;;;10543790;28;20167;-84
2023/09/05 14:50:16;;;;;;;5.00;2.30;;;;;;;;;;10540588;28;20034;-84
2023/09/05 14:55:17;;;;;;;2.38;1.20;;;;;;;;;;10536712;28;20031;-85
2023/09/05 15:00:20;;;;;;;2.13;1.00;;;;;;;;;;10542498;28;20031;-85
2023/09/05 15:05:21;;;;;;;3.33;1.55;;;;;;;;;;10538112;28;20020;-85
2023/09/05 15:10:22;;;;;;;3.47;1.55;;;;;;;;;;10547438;28;20039;-86
2023/09/05 15:15:26;;;;;;;1.48;1.17;;;;;;;;;;10541747;28;20024;-86
2023/09/05 15:20:27;;;;;;;3.08;1.58;;;;;;;;;;10568109;28;20028;-84
2023/09/05 15:25:30;;;;;;;2.95;1.55;;;;;;;;;;10549680;28;20032;-87
2023/09/05 15:30:31;;;;;;;3.03;2.05;;;;;;;;;;10534212;28;20027;-84
2023/09/05 15:35:36;;;;;;;3.53;1.52;;;;;;;;;;10531152;28;20020;-85
2023/09/05 15:40:40;;;;;;;3.92;1.30;;;;;;;;;;10531598;28;20103;-85
2023/09/05 15:45:50;;;;;;;2.33;1.17;;;;;;;;;;10530839;28;20036;-85
2023/09/05 15:50:55;;;;;;;3.00;1.58;;;;;;;;;;10533053;28;20028;-84
2023/09/05 15:55:56;;;;;;;4.05;2.90;;;;;;;;;;10532339;28;20032;-84
2023/09/05 16:00:57;;;;;;;3.75;2.58;;;;;;;;;;10549111;28;20031;-85
2023/09/05 16:05:59;;;;;;;3.10;2.17;;;;;;;;;;10530993;28;20039;-85
2023/09/05 16:11:09;;;;;;;3.30;1.70;;;;;;;;;;10531010;28;20097;-85
2023/09/05 16:16:17;;;;;;;3.75;2.25;;;;;;;;;;10551584;28;20053;-84
2023/09/05 16:21:22;;;;;;;2.65;1.58;;;;;;;;;;10534163;28;20039;-87
2023/09/05 16:26:23;;;;;;;4.18;2.40;;;;;;;;;;10529507;28;20036;-85
2023/09/05 16:31:24;;;;;;;2.90;2.25;;;;;;;;;;10532177;28;20456;-83
2023/09/05 16:36:25;;;;;;;4.63;2.72;;;;;;;;;;10535776;28;20043;-83
2023/09/05 16:41:29;;;;;;;4.95;2.78;;;;;;;;;;10532623;28;20605;-83
2023/09/05 16:46:31;;;;;;;3.38;1.98;;;;;;;;;;10537651;28;20020;-83
2023/09/05 16:51:32;;;;;;;3.08;2.15;;;;;;;;;;10538764;28;20103;-84
2023/09/05 16:56:33;;;;;;;3.72;2.35;;;;;;;;;;10542098;28;20035;-84
2023/09/05 17:01:34;;;;;;;3.60;2.53;;;;;;;;;;10537263;28;20028;-84
2023/09/05 17:06:36;;;;;;;2.20;1.80;;;;;;;;;;10540774;28;20085;-84
2023/09/05 17:11:37;;;;;;;4.00;1.65;;;;;;;;;;10566615;28;20032;-83
2023/09/05 17:16:38;;;;;;;2.35;1.92;;;;;;;;;;10542799;28;20028;-84
2023/09/05 17:21:39;;;;;;;3.17;2.40;;;;;;;;;;10532287;28;20052;-84
2023/09/05 17:26:40;;;;;;;3.90;2.60;;;;;;;;;;10532424;28;20077;-84
2023/09/05 17:31:41;;;;;;;4.07;3.15;;;;;;;;;;10531940;28;20462;-83
2023/09/05 17:36:43;;;;;;;3.58;2.90;;;;;;;;;;10533995;28;20024;-83
2023/09/05 17:41:44;;;;;;;4.70;2.90;;;;;;;;;;10531123;28;20450;-84
2023/09/05 17:46:45;;;;;;;2.75;2.30;;;;;;;;;;10530724;28;20068;-83
2023/09/05 17:51:46;;;;;;;4.32;2.95;;;;;;;;;;10530290;28;20118;-83
2023/09/05 17:56:47;;;;;;;3.28;2.83;;;;;;;;;;10531276;28;20488;-84
2023/09/05 18:01:48;;;;;;;5.18;3.05;;;;;;;;;;10531698;28;20111;-83
2023/09/05 18:06:50;;;;;;;3.53;3.15;;;;;;;;;;10530372;28;20596;-84
2023/09/05 18:11:51;;;;;;;3.83;2.65;;;;;;;;;;10534832;28;20030;-84
2023/09/05 18:16:52;;;;;;;3.75;2.53;;;;;;;;;;10534946;28;20119;-83
2023/09/05 18:21:53;;;;;;;3.45;2.90;;;;;;;;;;10533013;28;20059;-84
2023/09/05 18:26:54;;;;;;;2.90;2.30;;;;;;;;;;10534054;28;20032;-84
2023/09/05 18:31:55;;;;;;;4.13;3.05;;;;;;;;;;10532154;28;20541;-84
2023/09/05 18:36:56;;;;;;;3.95;2.63;;;;;;;;;;10531122;28;20062;-84
2023/09/05 18:41:57;;;;;;;4.53;3.30;;;;;;;;;;10538264;28;20100;-84
2023/09/05 18:47:02;;;;;;;3.42;2.55;;;;;;;;;;10540517;28;20074;-84
2023/09/05 18:52:05;;;;;;;3.13;2.15;;;;;;;;;;10536576;28;20506;-84
2023/09/05 18:57:07;;;;;;;3.90;2.60;;;;;;;;;;10539715;28;20045;-84
2023/09/05 19:02:09;;;;;;;4.43;2.97;;;;;;;;;;10538414;28;20020;-84
2023/09/05 19:07:10;;;;;;;3.63;3.08;;;;;;;;;;10537670;28;20116;-84
2023/09/05 19:12:13;;;;;;;7.72;3.10;;;;;;;;;;10538035;28;20082;-84
